Time;durP1;ratioP1;P1;durP2;ratioP2;P2;SDS_P1;SDS_P2;PMS_P1;PMS_P2;Temp;Humidity;BMP_temperature;BMP_pressure;BME280_temperature;BME280_humidity;BME280_pressure;Samples;Min_cycle;Max_cycle;Signal;HPM_P1;HPM_P2
2024/03/27 00:01:57;;;;;;;4.00;2.65;;;19.50;74.00;;;;;;5012386;28;20030;-33
2024/03/27 00:04:23;;;;;;;3.40;2.60;;;19.40;73.90;;;;;;5012208;28;20030;-33
2024/03/27 00:06:48;;;;;;;4.60;2.60;;;19.40;74.00;;;;;;5011394;28;20381;-33
2024/03/27 00:09:14;;;;;;;3.75;2.63;;;19.40;74.00;;;;;;5012563;28;20030;-35
2024/03/27 00:11:40;;;;;;;3.25;2.30;;;19.40;74.00;;;;;;5014459;28;20030;-33
2024/03/27 00:14:06;;;;;;;2.88;2.25;;;19.40;74.10;;;;;;5016570;28;20022;-33
2024/03/27 00:16:31;;;;;;;3.85;2.40;;;19.40;74.10;;;;;;5016593;28;20429;-33
2024/03/27 00:18:57;;;;;;;3.03;2.00;;;19.40;74.20;;;;;;5016696;28;20089;-34
2024/03/27 00:21:22;;;;;;;3.80;2.20;;;19.40;74.20;;;;;;5016421;28;20025;-33
2024/03/27 00:23:48;;;;;;;4.05;2.25;;;19.40;74.30;;;;;;5015843;28;20439;-32
2024/03/27 00:26:14;;;;;;;3.75;2.50;;;19.40;74.20;;;;;;5015583;28;20533;-32
2024/03/27 00:28:40;;;;;;;3.55;2.00;;;19.40;74.30;;;;;;5016541;28;20026;-33
2024/03/27 00:31:05;;;;;;;4.25;2.30;;;19.40;74.30;;;;;;5015543;28;20025;-35
2024/03/27 00:33:31;;;;;;;2.40;1.95;;;19.40;74.40;;;;;;5015547;28;20026;-33
2024/03/27 00:35:57;;;;;;;2.95;1.88;;;19.30;74.40;;;;;;5015477;28;20056;-33
2024/03/27 00:38:24;;;;;;;3.53;2.10;;;19.40;74.50;;;;;;5015418;28;20018;-33
2024/03/27 00:40:50;;;;;;;2.90;2.00;;;19.30;74.50;;;;;;5015393;28;20033;-33
2024/03/27 00:43:16;;;;;;;3.42;1.88;;;19.30;74.50;;;;;;5015451;28;20109;-35
2024/03/27 00:45:43;;;;;;;2.97;2.20;;;19.30;74.50;;;;;;5015759;28;20038;-32
2024/03/27 00:48:09;;;;;;;2.45;1.80;;;19.30;74.60;;;;;;5015699;28;20068;-33
2024/03/27 00:50:34;;;;;;;2.97;2.10;;;19.30;74.60;;;;;;5015185;28;20025;-32
2024/03/27 00:53:01;;;;;;;3.75;2.47;;;19.30;74.60;;;;;;5015402;28;20022;-32
2024/03/27 00:55:27;;;;;;;2.67;1.92;;;19.30;74.70;;;;;;5015254;28;20021;-32
2024/03/27 00:57:52;;;;;;;5.07;2.60;;;19.30;74.70;;;;;;5015120;28;20026;-33
2024/03/27 01:00:18;;;;;;;3.30;2.15;;;19.30;74.80;;;;;;5015207;28;20478;-34
2024/03/27 01:02:47;;;;;;;3.53;2.30;;;19.30;74.80;;;;;;5014957;28;20503;-31
2024/03/27 01:05:13;;;;;;;3.40;2.35;;;19.30;74.80;;;;;;5014902;28;20397;-31
2024/03/27 01:07:39;;;;;;;3.40;2.30;;;19.30;74.90;;;;;;5014871;28;20054;-31
2024/03/27 01:10:06;;;;;;;4.47;2.30;;;19.30;74.90;;;;;;5014825;28;20515;-32
2024/03/27 01:12:32;;;;;;;3.40;2.20;;;19.30;75.00;;;;;;5014747;28;20176;-31
2024/03/27 01:14:57;;;;;;;3.67;2.58;;;19.30;75.00;;;;;;5014639;28;20116;-31
2024/03/27 01:17:23;;;;;;;4.10;2.42;;;19.20;75.00;;;;;;5014433;28;20033;-31
2024/03/27 01:19:49;;;;;;;3.83;2.03;;;19.20;75.00;;;;;;5014623;28;20018;-32
2024/03/27 01:22:15;;;;;;;4.10;2.35;;;19.30;75.10;;;;;;5014054;28;20096;-30
2024/03/27 01:24:40;;;;;;;3.00;2.15;;;19.20;75.00;;;;;;5014535;28;20018;-32
2024/03/27 01:27:06;;;;;;;3.22;2.10;;;19.20;75.10;;;;;;5014836;28;20036;-32
2024/03/27 01:29:32;;;;;;;3.70;2.40;;;19.20;75.10;;;;;;5014398;28;20037;-31
2024/03/27 01:31:57;;;;;;;2.63;2.00;;;19.20;75.20;;;;;;5014153;28;20520;-31
2024/03/27 01:34:23;;;;;;;4.32;2.03;;;19.20;75.20;;;;;;5013141;28;20564;-31
2024/03/27 01:36:49;;;;;;;3.80;2.00;;;19.20;75.20;;;;;;5014482;28;20393;-31
2024/03/27 01:39:15;;;;;;;4.65;2.00;;;19.20;75.30;;;;;;5014191;28;20030;-31
2024/03/27 01:41:41;;;;;;;3.00;1.80;;;19.20;75.30;;;;;;5014279;28;20101;-31
2024/03/27 01:44:16;;;;;;;2.95;2.03;;;19.20;75.40;;;;;;5014099;28;20481;-31
2024/03/27 01:46:43;;;;;;;5.07;2.20;;;19.20;75.40;;;;;;5013968;28;20474;-31
2024/03/27 01:49:09;;;;;;;2.72;1.98;;;19.20;75.40;;;;;;5014056;28;20033;-31
2024/03/27 01:51:34;;;;;;;3.58;2.00;;;19.20;75.40;;;;;;5013981;28;20477;-31
2024/03/27 01:54:01;;;;;;;3.15;1.90;;;19.20;75.40;;;;;;5013908;28;20037;-32
2024/03/27 01:56:26;;;;;;;3.10;1.92;;;19.20;75.40;;;;;;5013810;28;20393;-31
2024/03/27 01:58:52;;;;;;;2.97;1.83;;;19.20;75.50;;;;;;5013765;28;20022;-32
2024/03/27 02:01:18;;;;;;;3.75;2.03;;;19.20;75.50;;;;;;5013618;28;20026;-32
2024/03/27 02:03:45;;;;;;;3.45;2.03;;;19.20;75.60;;;;;;5013811;28;20022;-31
2024/03/27 02:06:11;;;;;;;3.53;1.75;;;19.20;75.60;;;;;;5013877;28;20022;-32
2024/03/27 02:08:36;;;;;;;2.83;1.80;;;19.20;75.60;;;;;;5013719;28;20044;-31
2024/03/27 02:11:02;;;;;;;2.88;2.00;;;19.10;75.60;;;;;;5013630;28;20468;-33
2024/03/27 02:13:28;;;;;;;3.03;1.80;;;19.10;75.60;;;;;;5013631;28;20032;-31
2024/03/27 02:16:00;;;;;;;2.65;1.67;;;19.10;76.40;;;;;;5013441;28;20093;-31
2024/03/27 02:18:26;;;;;;;4.80;1.65;;;19.10;75.70;;;;;;5013475;28;20058;-31
2024/03/27 02:20:52;;;;;;;2.50;1.42;;;19.10;75.70;;;;;;5013462;28;20460;-31
2024/03/27 02:23:22;;;;;;;3.25;2.05;;;19.10;75.70;;;;;;5013920;28;20033;-32
2024/03/27 02:25:59;;;;;;;2.65;1.98;;;19.10;75.70;;;;;;5013470;28;20433;-33
2024/03/27 02:28:25;;;;;;;3.33;1.73;;;19.10;75.80;;;;;;5013460;28;20034;-33
2024/03/27 02:30:51;;;;;;;2.33;1.60;;;19.10;75.80;;;;;;5013389;28;20026;-33
2024/03/27 02:33:17;;;;;;;2.70;1.60;;;19.10;75.90;;;;;;5012766;28;20169;-33
2024/03/27 02:35:42;;;;;;;2.63;1.60;;;19.10;75.90;;;;;;5012045;28;20053;-33
2024/03/27 02:38:08;;;;;;;3.03;1.95;;;19.10;75.90;;;;;;5013267;28;20022;-30
2024/03/27 02:40:34;;;;;;;3.75;1.70;;;19.10;75.90;;;;;;5013390;28;20033;-30
2024/03/27 02:42:59;;;;;;;2.42;1.73;;;19.10;75.90;;;;;;5013438;28;20028;-31
2024/03/27 02:45:25;;;;;;;2.55;1.55;;;19.00;75.90;;;;;;5012838;28;20095;-33
2024/03/27 02:47:50;;;;;;;3.15;1.73;;;19.10;76.00;;;;;;5012992;28;20501;-31
2024/03/27 02:50:16;;;;;;;2.70;1.83;;;19.10;76.00;;;;;;5013293;28;20025;-31
2024/03/27 02:52:42;;;;;;;2.28;1.50;;;19.00;75.90;;;;;;5012972;28;20022;-31
2024/03/27 02:55:07;;;;;;;2.80;1.70;;;19.00;75.90;;;;;;5012840;28;20018;-32
2024/03/27 02:57:33;;;;;;;3.92;1.80;;;19.00;76.00;;;;;;5012860;28;20029;-33
2024/03/27 02:59:59;;;;;;;3.20;1.60;;;19.00;75.90;;;;;;5012692;28;20417;-34
2024/03/27 03:02:24;;;;;;;3.40;1.42;;;19.00;76.00;;;;;;5012909;28;20025;-33
2024/03/27 03:04:50;;;;;;;3.35;1.80;;;19.00;76.00;;;;;;5013706;28;20026;-33
2024/03/27 03:07:15;;;;;;;4.05;1.73;;;19.00;76.00;;;;;;5013773;28;20061;-32
2024/03/27 03:09:41;;;;;;;2.97;1.65;;;19.00;76.70;;;;;;5012752;28;20029;-35
2024/03/27 03:12:07;;;;;;;3.75;1.50;;;19.00;76.00;;;;;;5012678;28;20543;-33
2024/03/27 03:14:33;;;;;;;3.08;1.52;;;19.00;76.00;;;;;;5012647;28;20524;-33
2024/03/27 03:16:59;;;;;;;2.58;1.67;;;19.00;76.00;;;;;;5012819;28;20034;-34
2024/03/27 03:19:25;;;;;;;2.13;1.48;;;19.00;76.00;;;;;;5012486;28;20054;-33
2024/03/27 03:21:51;;;;;;;3.15;1.65;;;19.00;76.00;;;;;;5012889;28;20477;-33
2024/03/27 03:24:16;;;;;;;1.83;1.45;;;19.00;76.00;;;;;;5012495;28;20026;-32
2024/03/27 03:26:42;;;;;;;3.38;1.75;;;19.00;76.00;;;;;;5012646;28;20022;-33
2024/03/27 03:29:07;;;;;;;2.20;1.33;;;19.00;75.90;;;;;;5013055;28;20029;-34
2024/03/27 03:31:33;;;;;;;2.63;1.30;;;19.00;76.00;;;;;;5012422;28;20064;-33
2024/03/27 03:33:59;;;;;;;3.05;1.70;;;19.00;76.00;;;;;;5012477;28;20405;-33
2024/03/27 03:36:25;;;;;;;2.97;1.58;;;19.00;75.90;;;;;;5012301;28;20030;-33
2024/03/27 03:38:50;;;;;;;3.15;1.58;;;19.00;75.90;;;;;;5012209;28;20477;-32
2024/03/27 03:41:16;;;;;;;3.35;1.70;;;19.00;75.90;;;;;;5012189;28;20024;-33
2024/03/27 03:43:42;;;;;;;2.05;1.50;;;19.00;75.90;;;;;;5012264;28;20274;-31
2024/03/27 03:46:07;;;;;;;2.78;1.77;;;18.90;75.80;;;;;;5011781;28;20036;-32
2024/03/27 03:48:33;;;;;;;3.05;2.35;;;18.90;75.80;;;;;;5011992;28;20088;-33
2024/03/27 03:50:58;;;;;;;5.13;2.50;;;18.90;75.80;;;;;;5012353;28;20029;-33
2024/03/27 03:53:24;;;;;;;3.15;2.13;;;18.90;75.80;;;;;;5012429;28;20026;-34
2024/03/27 03:55:50;;;;;;;3.42;2.25;;;18.90;75.80;;;;;;5012048;28;20081;-33
2024/03/27 03:58:16;;;;;;;2.90;1.95;;;18.90;76.60;;;;;;5012033;28;20025;-33
2024/03/27 04:00:41;;;;;;;3.08;1.77;;;18.90;75.80;;;;;;5012064;28;20037;-33
2024/03/27 04:03:07;;;;;;;3.15;1.80;;;18.90;75.80;;;;;;5012103;28;20022;-33
2024/03/27 04:05:33;;;;;;;3.92;1.90;;;18.90;75.80;;;;;;5012259;28;20501;-33
2024/03/27 04:07:58;;;;;;;3.80;1.55;;;18.90;75.80;;;;;;5012064;28;20086;-33
2024/03/27 04:10:24;;;;;;;2.28;1.17;;;18.90;75.80;;;;;;5012197;28;20029;-36
2024/03/27 04:12:50;;;;;;;2.60;1.63;;;18.90;75.80;;;;;;5012228;28;20026;-36
2024/03/27 04:15:15;;;;;;;4.05;1.63;;;18.90;75.80;;;;;;5012591;28;20169;-33
2024/03/27 04:17:41;;;;;;;4.25;1.70;;;18.80;75.70;;;;;;5012175;28;20032;-32
2024/03/27 04:20:10;;;;;;;3.42;1.50;;;18.90;75.80;;;;;;5011991;28;20100;-33
2024/03/27 04:22:37;;;;;;;3.65;1.67;;;18.80;75.70;;;;;;5011996;28;20022;-33
2024/03/27 04:25:06;;;;;;;3.10;1.58;;;18.90;75.80;;;;;;5011898;28;20543;-32
2024/03/27 04:27:32;;;;;;;2.97;1.52;;;18.80;75.70;;;;;;5011856;28;20440;-32
2024/03/27 04:29:58;;;;;;;2.85;1.63;;;18.80;75.70;;;;;;5011801;28;20045;-33
2024/03/27 04:32:24;;;;;;;3.75;1.42;;;18.80;75.70;;;;;;5011991;28;20061;-33
2024/03/27 04:34:50;;;;;;;2.42;1.50;;;18.80;75.70;;;;;;5012343;28;20029;-33
2024/03/27 04:37:15;;;;;;;2.17;1.45;;;18.80;75.60;;;;;;5012671;28;20077;-33
2024/03/27 04:39:42;;;;;;;2.97;1.60;;;18.80;75.60;;;;;;5014001;28;20552;-32
2024/03/27 04:42:10;;;;;;;2.55;1.42;;;18.80;75.60;;;;;;5013183;28;20076;-32
2024/03/27 04:44:36;;;;;;;2.25;1.30;;;18.80;75.60;;;;;;5012725;28;20030;-33
2024/03/27 04:47:02;;;;;;;4.57;1.50;;;18.80;75.50;;;;;;5012616;28;20054;-32
2024/03/27 04:49:28;;;;;;;2.25;1.50;;;18.80;75.50;;;;;;5013282;28;20163;-32
2024/03/27 04:51:54;;;;;;;2.55;1.63;;;18.80;75.50;;;;;;5012990;28;20064;-33
2024/03/27 04:54:20;;;;;;;2.33;1.20;;;18.80;75.50;;;;;;5012828;28;20033;-32
2024/03/27 04:56:45;;;;;;;2.53;1.30;;;18.80;75.50;;;;;;5013565;28;20607;-33
2024/03/27 04:59:11;;;;;;;3.22;1.42;;;18.80;76.20;;;;;;5019676;28;20034;-33
2024/03/27 05:01:36;;;;;;;3.05;1.65;;;18.80;75.50;;;;;;5016672;28;20022;-31
2024/03/27 05:04:02;;;;;;;2.55;1.70;;;18.80;75.50;;;;;;5016028;28;20053;-32
2024/03/27 05:06:28;;;;;;;3.30;1.48;;;18.80;75.50;;;;;;5018103;28;20387;-33
2024/03/27 05:08:59;;;;;;;4.75;1.60;;;18.80;75.40;;;;;;5018210;28;20026;-33
2024/03/27 05:11:24;;;;;;;3.83;1.60;;;18.80;75.50;;;;;;5015445;28;20084;-34
2024/03/27 05:13:50;;;;;;;2.67;1.50;;;18.80;75.50;;;;;;5015011;28;20440;-33
2024/03/27 05:16:16;;;;;;;4.30;1.40;;;18.80;75.40;;;;;;5014584;28;20032;-32
2024/03/27 05:18:42;;;;;;;2.45;1.70;;;18.70;75.40;;;;;;5014633;28;20493;-31
2024/03/27 05:21:08;;;;;;;3.05;1.80;;;18.80;75.40;;;;;;5014576;28;20022;-31
2024/03/27 05:23:35;;;;;;;1.88;1.38;;;18.70;75.40;;;;;;5014669;28;20101;-30
2024/03/27 05:26:03;;;;;;;3.15;1.80;;;18.70;75.40;;;;;;5014464;28;20026;-33
2024/03/27 05:28:29;;;;;;;3.35;1.73;;;18.70;75.40;;;;;;5014472;28;20217;-32
2024/03/27 05:30:54;;;;;;;2.55;1.50;;;18.70;75.40;;;;;;5014447;28;20045;-32
2024/03/27 05:33:20;;;;;;;5.60;1.52;;;18.70;75.40;;;;;;5014512;28;20030;-32
2024/03/27 05:35:46;;;;;;;2.22;1.52;;;18.70;76.10;;;;;;5014588;28;20045;-31
2024/03/27 05:38:12;;;;;;;2.60;1.40;;;18.70;75.40;;;;;;5014324;28;20033;-32
2024/03/27 05:40:38;;;;;;;2.83;1.38;;;18.70;75.40;;;;;;5014220;28;20033;-31
2024/03/27 05:43:04;;;;;;;3.50;1.73;;;18.70;75.40;;;;;;5014249;28;20026;-31
2024/03/27 05:45:30;;;;;;;3.13;1.55;;;18.70;75.40;;;;;;5013981;28;20064;-32
2024/03/27 05:47:57;;;;;;;2.97;1.80;;;18.70;75.40;;;;;;5014091;28;20026;-31
2024/03/27 05:50:23;;;;;;;3.05;1.20;;;18.70;75.40;;;;;;5014069;28;20029;-31
2024/03/27 05:52:48;;;;;;;4.00;1.90;;;18.70;75.50;;;;;;5014258;28;20025;-31
2024/03/27 05:55:14;;;;;;;2.75;1.45;;;18.60;75.40;;;;;;5023240;28;20026;-33
2024/03/27 05:57:39;;;;;;;3.28;1.50;;;18.60;75.40;;;;;;5022930;28;20030;-33
2024/03/27 06:00:09;;;;;;;3.65;1.70;;;18.60;75.40;;;;;;5014351;28;20041;-33
2024/03/27 06:02:35;;;;;;;1.63;1.30;;;18.60;75.50;;;;;;5014612;28;20097;-33
2024/03/27 06:05:01;;;;;;;2.30;1.45;;;18.60;75.40;;;;;;5014418;28;20512;-33
2024/03/27 06:07:27;;;;;;;2.55;1.70;;;18.60;75.50;;;;;;5013782;28;20481;-32
2024/03/27 06:09:52;;;;;;;2.33;1.17;;;18.60;75.50;;;;;;5013654;28;20037;-33
2024/03/27 06:12:18;;;;;;;3.28;1.50;;;18.60;75.50;;;;;;5014421;28;20053;-32
2024/03/27 06:14:43;;;;;;;2.15;1.50;;;18.60;75.60;;;;;;5012397;28;20378;-33
2024/03/27 06:17:09;;;;;;;2.42;1.50;;;18.60;75.60;;;;;;5013653;28;20515;-33
2024/03/27 06:19:35;;;;;;;4.00;1.50;;;18.60;75.60;;;;;;5013577;28;20052;-33
2024/03/27 06:22:01;;;;;;;3.97;1.63;;;18.60;75.60;;;;;;5013745;28;20022;-33
2024/03/27 06:24:26;;;;;;;2.65;1.30;;;18.60;75.70;;;;;;5013686;28;20030;-33
2024/03/27 06:26:52;;;;;;;3.67;1.67;;;18.60;75.70;;;;;;5013478;28;20026;-33
2024/03/27 06:29:17;;;;;;;2.60;1.42;;;18.60;75.70;;;;;;5013401;28;20038;-33
2024/03/27 06:31:43;;;;;;;3.63;1.65;;;18.60;75.80;;;;;;5013571;28;20030;-33
2024/03/27 06:34:10;;;;;;;3.17;1.73;;;18.60;75.70;;;;;;5013436;28;20057;-33
2024/03/27 06:36:37;;;;;;;3.45;1.92;;;18.60;75.80;;;;;;5013428;28;20037;-33
2024/03/27 06:39:03;;;;;;;3.55;1.77;;;18.60;75.80;;;;;;5014253;28;20512;-33
2024/03/27 06:41:28;;;;;;;3.67;1.85;;;18.60;75.90;;;;;;5013247;28;20049;-33
2024/03/27 06:43:54;;;;;;;3.92;1.50;;;18.60;75.90;;;;;;5013210;28;20393;-33
2024/03/27 06:46:20;;;;;;;2.58;1.48;;;18.60;75.90;;;;;;5013621;28;20041;-33
2024/03/27 06:49:17;;;;;;;3.83;1.90;;;18.60;75.90;;;;;;5013312;28;20022;-33
2024/03/27 06:51:32;;;;;;;3.05;1.50;;;18.60;76.00;;;;;;5012750;28;20038;-32
2024/03/27 06:53:57;;;;;;;3.63;1.58;;;18.60;76.00;;;;;;5012912;28;20036;-33
2024/03/27 06:56:23;;;;;;;2.35;1.60;;;18.60;76.10;;;;;;5012895;28;20038;-33
2024/03/27 06:58:48;;;;;;;2.78;1.60;;;18.60;76.00;;;;;;5012891;28;20117;-34
2024/03/27 07:01:14;;;;;;;3.17;1.92;;;18.60;76.10;;;;;;5012901;28;20026;-33
2024/03/27 07:03:40;;;;;;;2.42;1.83;;;18.60;76.10;;;;;;5012858;28;20102;-33
2024/03/27 07:06:06;;;;;;;4.28;1.92;;;18.60;76.10;;;;;;5012720;28;20093;-33
2024/03/27 07:08:32;;;;;;;4.35;1.83;;;18.60;76.10;;;;;;5013017;28;20060;-33
2024/03/27 07:11:02;;;;;;;2.92;1.77;;;18.60;76.20;;;;;;5012763;28;20065;-33
2024/03/27 07:13:27;;;;;;;2.85;1.50;;;18.60;76.10;;;;;;5012814;28;20500;-33
2024/03/27 07:15:54;;;;;;;2.15;1.52;;;18.70;76.20;;;;;;5013194;28;20034;-33
2024/03/27 07:18:21;;;;;;;2.90;1.70;;;18.70;76.20;;;;;;5013099;28;20053;-32
2024/03/27 07:20:54;;;;;;;3.60;1.70;;;18.70;76.20;;;;;;5012604;28;20022;-33
2024/03/27 07:23:19;;;;;;;2.75;1.73;;;18.70;76.30;;;;;;5011500;28;20073;-34
2024/03/27 07:25:45;;;;;;;1.98;1.40;;;18.70;76.20;;;;;;5013143;28;20048;-33
2024/03/27 07:28:10;;;;;;;3.15;1.80;;;18.70;76.20;;;;;;5013192;28;20026;-33
2024/03/27 07:30:36;;;;;;;3.28;1.77;;;18.80;76.20;;;;;;5013296;28;20492;-33
2024/03/27 07:33:02;;;;;;;2.88;1.60;;;18.80;76.20;;;;;;5013660;28;20225;-33
2024/03/27 07:35:27;;;;;;;2.80;1.38;;;18.80;76.20;;;;;;5012640;28;20018;-36
2024/03/27 07:37:53;;;;;;;3.22;1.70;;;18.80;76.20;;;;;;5012578;28;20029;-35
2024/03/27 07:40:19;;;;;;;2.33;1.77;;;18.90;76.20;;;;;;5013009;28;20029;-34
2024/03/27 07:42:44;;;;;;;3.38;1.50;;;18.80;76.10;;;;;;5012285;28;20176;-33
2024/03/27 07:45:10;;;;;;;4.53;2.15;;;18.90;76.10;;;;;;5012118;28;20044;-33
2024/03/27 07:47:35;;;;;;;4.45;1.67;;;18.90;75.90;;;;;;5012325;28;20022;-33
2024/03/27 07:50:02;;;;;;;4.03;2.38;;;18.90;75.70;;;;;;5012266;28;20115;-33
2024/03/27 07:52:28;;;;;;;5.50;2.08;;;18.90;76.50;;;;;;5012225;28;20045;-33
2024/03/27 07:54:54;;;;;;;6.45;2.22;;;18.90;75.80;;;;;;5012559;28;20082;-32
2024/03/27 07:57:28;;;;;;;3.15;2.15;;;18.90;75.80;;;;;;5012365;28;20021;-32
2024/03/27 07:59:53;;;;;;;3.55;1.75;;;18.90;75.80;;;;;;5012340;28;20026;-33
2024/03/27 08:02:19;;;;;;;6.00;1.70;;;18.90;75.90;;;;;;5012656;28;20028;-33
2024/03/27 08:04:45;;;;;;;5.15;2.13;;;18.90;76.70;;;;;;5012839;28;20022;-32
2024/03/27 08:07:10;;;;;;;6.03;2.10;;;18.90;75.90;;;;;;5012514;28;20026;-33
2024/03/27 08:09:36;;;;;;;5.90;1.90;;;19.00;76.00;;;;;;5012239;28;20021;-32
2024/03/27 08:12:02;;;;;;;4.18;1.98;;;18.90;76.00;;;;;;5012185;28;20026;-32
2024/03/27 08:14:27;;;;;;;5.32;1.83;;;19.00;76.10;;;;;;5012068;28;20022;-32
2024/03/27 08:16:53;;;;;;;3.20;1.73;;;19.00;76.10;;;;;;5011994;28;20038;-31
2024/03/27 08:19:19;;;;;;;4.72;1.50;;;19.00;76.10;;;;;;5012039;28;20034;-32
2024/03/27 08:21:44;;;;;;;3.38;1.80;;;19.00;76.00;;;;;;5011824;28;20033;-32
2024/03/27 08:24:10;;;;;;;3.13;1.60;;;19.00;76.00;;;;;;5011983;28;20092;-32
2024/03/27 08:26:36;;;;;;;2.70;1.55;;;19.00;76.00;;;;;;5011980;28;20521;-32
2024/03/27 08:29:03;;;;;;;5.28;1.80;;;19.10;76.00;;;;;;5011516;28;20034;-32
2024/03/27 08:31:29;;;;;;;2.85;1.40;;;19.10;76.00;;;;;;5012167;28;20029;-31
2024/03/27 08:33:54;;;;;;;4.18;1.58;;;19.10;76.00;;;;;;5015588;28;20444;-32
2024/03/27 08:36:20;;;;;;;2.15;1.45;;;19.10;76.00;;;;;;5015555;28;20105;-32
2024/03/27 08:38:46;;;;;;;3.10;1.40;;;19.20;76.00;;;;;;5015662;28;20030;-32
2024/03/27 08:41:11;;;;;;;1.90;1.27;;;19.20;76.00;;;;;;5014334;28;20033;-32
2024/03/27 08:43:37;;;;;;;3.55;1.55;;;19.20;75.90;;;;;;5016091;28;20026;-33
2024/03/27 08:46:04;;;;;;;3.83;1.48;;;19.20;75.90;;;;;;5015903;28;20037;-32
2024/03/27 08:48:30;;;;;;;3.22;1.58;;;19.30;75.90;;;;;;5015515;28;20022;-33
2024/03/27 08:50:55;;;;;;;3.30;1.75;;;19.30;75.90;;;;;;5015698;28;20038;-32
2024/03/27 08:53:21;;;;;;;3.53;1.58;;;19.40;75.90;;;;;;5015611;28;20030;-32
2024/03/27 08:55:48;;;;;;;1.95;1.45;;;19.40;75.90;;;;;;5015229;28;20076;-32
2024/03/27 08:58:13;;;;;;;2.47;1.40;;;19.40;75.80;;;;;;5015056;28;20389;-32
2024/03/27 09:00:40;;;;;;;2.92;1.27;;;19.50;75.80;;;;;;5015172;28;20030;-32
2024/03/27 09:03:06;;;;;;;2.92;1.20;;;19.50;75.70;;;;;;5015227;28;20028;-32
2024/03/27 09:05:31;;;;;;;3.25;1.67;;;19.60;75.70;;;;;;5015729;28;20022;-32
2024/03/27 09:07:57;;;;;;;4.38;1.48;;;19.70;75.60;;;;;;5024350;28;20026;-33
2024/03/27 09:10:25;;;;;;;4.60;1.50;;;19.70;75.60;;;;;;5032028;28;20481;-33
2024/03/27 09:12:51;;;;;;;3.15;1.30;;;19.80;75.50;;;;;;5015824;28;20125;-31
2024/03/27 09:15:16;;;;;;;3.22;1.40;;;19.80;75.30;;;;;;5014928;28;20517;-32
2024/03/27 09:17:42;;;;;;;2.38;1.30;;;19.90;75.30;;;;;;5014830;28;20026;-30
2024/03/27 09:20:09;;;;;;;2.67;1.45;;;20.00;75.20;;;;;;5014576;28;20114;-31
2024/03/27 09:22:35;;;;;;;3.03;1.48;;;20.10;75.10;;;;;;5014883;28;20429;-32
2024/03/27 09:25:01;;;;;;;1.88;1.30;;;20.10;75.00;;;;;;5015251;28;20079;-32
2024/03/27 09:27:27;;;;;;;2.97;1.15;;;20.20;75.00;;;;;;5013594;28;20473;-32
2024/03/27 09:29:53;;;;;;;1.88;1.02;;;20.20;74.80;;;;;;5014811;28;20392;-32
2024/03/27 09:32:19;;;;;;;1.80;1.10;;;20.30;74.70;;;;;;5014726;28;20034;-31
2024/03/27 09:34:48;;;;;;;2.30;1.20;;;20.30;74.50;;;;;;5014402;28;20057;-31
2024/03/27 09:37:15;;;;;;;2.97;1.38;;;20.40;74.50;;;;;;5014443;28;20068;-32
2024/03/27 09:39:41;;;;;;;3.72;1.27;;;20.40;74.30;;;;;;5014390;28;20405;-31
2024/03/27 09:42:07;;;;;;;3.72;1.33;;;20.50;74.20;;;;;;5014370;28;20030;-32
2024/03/27 09:44:33;;;;;;;2.00;1.25;;;20.50;74.00;;;;;;5013868;28;20034;-32
2024/03/27 09:47:00;;;;;;;2.67;1.23;;;20.60;74.00;;;;;;5014431;28;20037;-32
2024/03/27 09:49:29;;;;;;;1.73;1.25;;;20.60;73.90;;;;;;5014092;28;20057;-32
2024/03/27 09:51:57;;;;;;;1.05;0.95;;;20.70;73.90;;;;;;5013002;28;20030;-32
2024/03/27 09:54:26;;;;;;;1.90;1.20;;;20.80;73.60;;;;;;5014012;28;20030;-31
2024/03/27 09:56:57;;;;;;;2.42;1.10;;;20.80;73.60;;;;;;5012707;28;20030;-31
2024/03/27 09:59:23;;;;;;;3.17;1.10;;;20.80;73.60;;;;;;5013999;28;20386;-31
2024/03/27 10:02:06;;;;;;;1.65;0.85;;;20.90;73.90;;;;;;5014082;28;20441;-31
2024/03/27 10:04:33;;;;;;;2.33;1.00;;;20.90;73.90;;;;;;5014108;28;20441;-31
2024/03/27 10:06:58;;;;;;;4.30;1.02;;;21.00;73.90;;;;;;5013847;28;20501;-33
2024/03/27 10:09:24;;;;;;;2.63;1.00;;;21.00;73.70;;;;;;5013732;28;20044;-32
2024/03/27 10:11:50;;;;;;;2.83;0.90;;;21.10;73.70;;;;;;5013814;28;20069;-31
2024/03/27 10:14:16;;;;;;;1.75;0.95;;;21.20;73.60;;;;;;5013954;28;20026;-32
2024/03/27 10:16:43;;;;;;;2.13;0.95;;;21.20;73.40;;;;;;5013971;28;20080;-32
2024/03/27 10:19:09;;;;;;;2.08;1.02;;;21.30;73.30;;;;;;5014006;28;20034;-32
2024/03/27 10:21:34;;;;;;;2.78;0.98;;;21.30;73.20;;;;;;5013602;28;20436;-32
2024/03/27 10:24:03;;;;;;;2.78;0.98;;;21.40;73.10;;;;;;5013565;28;20037;-34
2024/03/27 10:26:30;;;;;;;1.63;0.80;;;21.50;73.00;;;;;;5014058;28;20018;-33
2024/03/27 10:28:57;;;;;;;2.17;0.98;;;21.50;72.80;;;;;;5013560;28;20030;-33
2024/03/27 10:31:22;;;;;;;2.15;1.02;;;21.50;72.70;;;;;;5013572;28;20052;-32
2024/03/27 10:33:48;;;;;;;1.90;0.90;;;21.60;72.70;;;;;;5013897;28;20038;-31
2024/03/27 10:36:25;;;;;;;1.35;0.60;;;21.60;72.50;;;;;;5013242;28;20085;-31
2024/03/27 10:38:56;;;;;;;1.25;0.73;;;21.60;72.50;;;;;;5013174;28;20029;-30
2024/03/27 10:41:26;;;;;;;1.98;1.02;;;21.70;72.40;;;;;;5013160;28;20018;-30
2024/03/27 10:43:56;;;;;;;1.10;0.75;;;21.70;72.40;;;;;;5013189;28;20496;-30
2024/03/27 10:46:24;;;;;;;1.35;0.80;;;21.70;72.20;;;;;;5013015;28;20113;-30
2024/03/27 10:48:50;;;;;;;1.17;0.80;;;21.80;72.20;;;;;;5012899;28;20062;-30
2024/03/27 10:51:18;;;;;;;1.45;0.73;;;21.80;72.10;;;;;;5012988;28;20076;-30
2024/03/27 10:53:46;;;;;;;1.45;0.88;;;21.80;72.00;;;;;;5012941;28;20030;-30
2024/03/27 10:56:12;;;;;;;2.55;1.05;;;21.80;71.90;;;;;;5012234;28;20035;-30
2024/03/27 10:58:38;;;;;;;1.13;0.68;;;21.90;71.90;;;;;;5012780;28;20033;-30
2024/03/27 11:01:05;;;;;;;1.05;0.60;;;21.90;71.80;;;;;;5012830;28;20053;-30
2024/03/27 11:03:31;;;;;;;0.75;0.50;;;21.90;71.80;;;;;;5012796;28;20049;-30
2024/03/27 11:06:00;;;;;;;1.35;0.65;;;21.90;71.70;;;;;;5012718;28;20520;-30
2024/03/27 11:08:29;;;;;;;1.27;0.80;;;21.90;71.60;;;;;;5012626;28;20473;-31
2024/03/27 11:11:04;;;;;;;0.90;0.70;;;21.90;71.60;;;;;;5012672;28;20034;-30
2024/03/27 11:13:30;;;;;;;1.20;0.70;;;21.90;71.60;;;;;;5012560;28;20034;-30
2024/03/27 11:15:56;;;;;;;0.90;0.55;;;21.90;71.60;;;;;;5012535;28;20033;-30
2024/03/27 11:18:29;;;;;;;1.80;0.70;;;21.90;71.60;;;;;;5012437;28;20084;-30
2024/03/27 11:20:56;;;;;;;1.73;0.90;;;21.90;71.60;;;;;;5012515;28;20022;-32
2024/03/27 11:23:35;;;;;;;1.33;0.50;;;21.90;71.70;;;;;;5012674;28;20097;-32
2024/03/27 11:26:04;;;;;;;2.42;0.80;;;21.80;71.60;;;;;;5011859;28;20060;-32
2024/03/27 11:28:34;;;;;;;2.58;0.80;;;21.80;71.60;;;;;;5010951;28;20030;-32
2024/03/27 11:31:03;;;;;;;1.92;1.00;;;21.80;71.70;;;;;;5017948;28;20504;-32
2024/03/27 11:33:29;;;;;;;2.83;1.00;;;21.70;71.80;;;;;;5013478;28;20527;-33
2024/03/27 11:35:55;;;;;;;1.25;0.80;;;21.70;72.00;;;;;;5012247;28;20033;-31
2024/03/27 11:38:22;;;;;;;1.27;0.73;;;21.60;72.10;;;;;;5012191;28;20038;-30
2024/03/27 11:40:54;;;;;;;2.67;0.63;;;21.60;72.10;;;;;;5012483;28;20481;-31
2024/03/27 11:43:20;;;;;;;1.50;0.90;;;21.60;72.20;;;;;;5012457;28;20504;-31
2024/03/27 11:45:50;;;;;;;1.85;0.70;;;21.60;72.30;;;;;;5013029;28;20022;-32
2024/03/27 11:48:18;;;;;;;1.40;0.63;;;21.50;72.30;;;;;;5011755;28;20029;-32
2024/03/27 11:50:44;;;;;;;3.05;0.98;;;21.50;72.30;;;;;;5012767;28;20026;-32
2024/03/27 11:53:10;;;;;;;0.88;0.60;;;21.50;72.60;;;;;;5012521;28;20028;-32
2024/03/27 11:55:36;;;;;;;1.45;0.70;;;21.50;72.40;;;;;;5012071;28;20104;-32
2024/03/27 11:58:02;;;;;;;2.42;0.90;;;21.40;72.40;;;;;;5012187;28;20380;-32
2024/03/27 12:00:28;;;;;;;0.57;0.52;;;21.40;72.50;;;;;;5010766;28;20033;-32
2024/03/27 12:02:55;;;;;;;1.67;0.60;;;21.40;72.50;;;;;;5012142;28;20029;-32
2024/03/27 12:05:21;;;;;;;0.98;0.60;;;21.30;72.50;;;;;;5011945;28;20491;-32
2024/03/27 12:07:47;;;;;;;1.73;0.50;;;21.30;72.60;;;;;;5014771;28;20026;-32
2024/03/27 12:10:13;;;;;;;2.05;0.68;;;21.30;72.60;;;;;;5016105;28;20061;-32
2024/03/27 12:12:38;;;;;;;0.90;0.60;;;21.30;72.70;;;;;;5016465;28;20420;-32
2024/03/27 12:15:05;;;;;;;1.17;0.40;;;21.30;72.80;;;;;;5017075;28;20030;-32
2024/03/27 12:17:40;;;;;;;0.82;0.50;;;21.20;72.80;;;;;;5017233;28;20105;-32
2024/03/27 12:20:07;;;;;;;0.80;0.52;;;21.20;72.80;;;;;;5016929;28;20037;-32
2024/03/27 12:22:34;;;;;;;0.90;0.50;;;21.20;72.90;;;;;;5017478;28;20109;-33
2024/03/27 12:25:00;;;;;;;1.30;0.50;;;21.20;72.90;;;;;;5017006;28;20084;-32
2024/03/27 12:27:33;;;;;;;1.15;0.52;;;21.20;73.00;;;;;;5017177;28;20096;-33
2024/03/27 12:29:59;;;;;;;0.82;0.40;;;21.10;73.00;;;;;;5018327;28;20029;-33
2024/03/27 12:32:27;;;;;;;1.00;0.50;;;21.10;73.10;;;;;;5017661;28;20516;-32
2024/03/27 12:34:53;;;;;;;0.50;0.40;;;21.10;73.20;;;;;;5016349;28;20104;-33
2024/03/27 12:37:19;;;;;;;0.50;0.40;;;21.10;73.30;;;;;;5016963;28;20050;-32
2024/03/27 12:39:44;;;;;;;0.60;0.50;;;21.00;73.20;;;;;;5016567;28;20459;-32
2024/03/27 12:42:10;;;;;;;0.30;0.30;;;21.00;73.30;;;;;;5016919;28;20030;-33
2024/03/27 12:44:36;;;;;;;0.70;0.40;;;21.00;73.40;;;;;;5016997;28;20048;-33